Time,TemperatureF,DewpointF,PressureIn,WindDirection,WindDirectionDegrees,WindSpeedMPH,WindSpeedGustMPH,Humidity,HourlyPrecipIn,Conditions,Clouds,dailyrainin,SoftwareType,DateUTC
2013-03-09 18:24:00,29.7,27.7,30.31,NNW,343,5.0,8.0,92,0.00,,---,0.00,VWS V14.00,2013-03-09 23:24:00,
2013-03-09 18:25:00,47.0,29.8,30.13,SSE,168,0.0,8.0,51,0.01,,---,0.01,VWS V14.00,2013-03-09 23:25:00,
2013-03-09 18:30:00,46.6,29.5,30.13,SSE,167,0.0,0.0,51,0.00,,---,0.01,VWS V14.00,2013-03-09 23:30:00,
2013-03-09 18:35:00,46.1,29.0,30.12,SSE,167,0.0,0.0,51,0.00,,---,0.01,VWS V14.00,2013-03-09 23:35:00,
2013-03-09 18:40:00,45.5,28.9,30.12,SSE,167,0.0,1.0,52,0.00,,---,0.01,VWS V14.00,2013-03-09 23:40:00,
2013-03-09 18:45:00,45.0,29.4,30.12,SSE,157,0.0,1.0,54,0.00,,---,0.01,VWS V14.00,2013-03-09 23:45:00,
2013-03-09 18:50:00,44.9,28.8,30.12,ESE,121,0.0,4.0,53,0.00,,---,0.01,VWS V14.00,2013-03-09 23:50:00,
2013-03-09 18:55:00,44.8,28.7,30.12,ESE,121,0.0,4.0,53,0.00,,---,0.01,VWS V14.00,2013-03-09 23:55:00,
2013-03-09 19:00:00,44.6,29.0,30.13,ESE,121,0.0,0.0,54,0.00,,---,0.01,VWS V14.00,2013-03-10 00:00:00,
2013-03-09 19:05:00,44.3,29.2,30.12,ESE,121,0.0,1.0,55,0.00,,---,0.01,VWS V14.00,2013-03-10 00:05:00,
2013-03-09 19:10:00,43.8,29.1,30.12,ESE,121,0.0,1.0,56,0.00,,---,0.01,VWS V14.00,2013-03-10 00:10:00,
2013-03-09 19:15:00,43.4,28.8,30.12,ESE,121,0.0,0.0,56,0.00,,---,0.01,VWS V14.00,2013-03-10 00:15:00,
2013-03-09 19:20:00,43.4,28.8,30.12,ESE,121,0.0,0.0,56,0.00,,---,0.01,VWS V14.00,2013-03-10 00:20:00,
2013-03-09 19:25:00,43.5,28.4,30.12,ESE,121,0.0,1.0,55,0.00,,---,0.01,VWS V14.00,2013-03-10 00:25:00,
2013-03-09 19:30:00,43.4,28.3,30.12,ESE,121,0.0,0.0,55,0.00,,---,0.01,VWS V14.00,2013-03-10 00:30:00,
2013-03-09 19:35:00,43.3,28.7,30.12,ESE,121,0.0,1.0,56,0.00,,---,0.01,VWS V14.00,2013-03-10 00:35:00,
2013-03-09 19:40:00,43.2,28.6,30.12,SE,144,0.0,1.0,56,0.00,,---,0.01,VWS V14.00,2013-03-10 00:40:00,
2013-03-09 19:45:00,43.3,28.2,30.12,South,173,0.0,1.0,55,0.00,,---,0.01,VWS V14.00,2013-03-10 00:45:00,
2013-03-09 19:50:00,43.4,28.8,30.11,SE,134,0.0,2.0,56,0.00,,---,0.01,VWS V14.00,2013-03-10 00:50:00,
2013-03-09 19:55:00,43.4,28.3,30.11,South,173,0.0,2.0,55,0.00,,---,0.01,VWS V14.00,2013-03-10 00:55:00,
2013-03-09 20:00:00,43.6,28.1,30.11,SE,136,0.0,0.0,54,0.00,,---,0.01,VWS V14.00,2013-03-10 01:00:00,
2013-03-09 20:05:00,43.8,27.8,30.11,SE,146,2.0,4.0,53,0.00,,---,0.01,VWS V14.00,2013-03-10 01:05:00,
2013-03-09 20:10:00,44.3,28.3,30.11,South,175,1.0,4.0,53,0.00,,---,0.01,VWS V14.00,2013-03-10 01:10:00,
2013-03-09 20:15:00,44.7,27.7,30.11,SSE,150,0.0,0.0,51,0.00,,---,0.01,VWS V14.00,2013-03-10 01:15:00,
2013-03-09 20:20:00,45.0,27.0,30.11,South,173,0.0,5.0,49,0.00,,---,0.01,VWS V14.00,2013-03-10 01:20:00,
2013-03-09 20:25:00,45.3,27.3,30.10,SSE,163,5.0,5.0,49,0.00,,---,0.01,VWS V14.00,2013-03-10 01:25:00,
2013-03-09 20:30:00,45.4,26.9,30.10,South,175,1.0,5.0,48,0.00,,---,0.01,VWS V14.00,2013-03-10 01:30:00,
2013-03-09 20:45:00,45.5,26.5,30.10,South,180,2.0,8.0,47,0.00,,---,0.01,VWS V14.00,2013-03-10 01:45:00,
2013-03-09 21:07:00,45.5,26.5,30.10,South,180,2.0,8.0,47,0.00,,---,0.01,VWS V14.00,2013-03-10 02:07:00,
2013-03-09 21:12:00,44.6,25.6,30.10,SSE,165,0.0,3.0,47,0.00,,---,0.01,VWS V14.00,2013-03-10 02:12:00,
2013-03-09 21:17:00,44.5,26.0,30.10,SE,144,0.0,1.0,48,0.00,,---,0.01,VWS V14.00,2013-03-10 02:17:00,
2013-03-09 21:22:00,44.2,26.3,30.10,SSE,157,0.0,2.0,49,0.00,,---,0.01,VWS V14.00,2013-03-10 02:22:00,
2013-03-09 21:27:00,43.8,26.4,30.10,South,169,0.0,4.0,50,0.00,,---,0.01,VWS V14.00,2013-03-10 02:27:00,
2013-03-09 21:32:00,43.3,26.4,30.10,South,169,0.0,1.0,51,0.00,,---,0.01,VWS V14.00,2013-03-10 02:32:00,
2013-03-09 21:37:00,43.0,26.1,30.09,South,175,0.0,1.0,51,0.00,,---,0.01,VWS V14.00,2013-03-10 02:37:00,
2013-03-09 21:42:00,42.9,26.0,30.09,SE,132,0.0,2.0,51,0.00,,---,0.01,VWS V14.00,2013-03-10 02:42:00,
2013-03-09 21:47:00,43.1,26.2,30.09,South,171,5.0,5.0,51,0.00,,---,0.01,VWS V14.00,2013-03-10 02:47:00,
2013-03-09 21:52:00,43.6,26.2,30.09,SE,146,0.0,7.0,50,0.00,,---,0.01,VWS V14.00,2013-03-10 02:52:00,
2013-03-09 21:57:00,43.9,26.5,30.08,SE,136,0.0,7.0,50,0.00,,---,0.01,VWS V14.00,2013-03-10 02:57:00,
2013-03-09 22:02:00,43.9,27.0,30.08,SSE,163,2.0,4.0,51,0.00,,---,0.01,VWS V14.00,2013-03-10 03:02:00,
2013-03-09 22:07:00,44.0,26.6,30.08,SSW,192,0.0,5.0,50,0.00,,---,0.01,VWS V14.00,2013-03-10 03:07:00,
2013-03-09 22:12:00,44.3,26.9,30.08,South,175,2.0,7.0,50,0.00,,---,0.01,VWS V14.00,2013-03-10 03:12:00,
2013-03-09 22:17:00,44.6,27.1,30.08,South,183,3.0,4.0,50,0.00,,---,0.01,VWS V14.00,2013-03-10 03:17:00,
2013-03-09 22:22:00,44.7,27.2,30.08,South,178,1.0,9.0,50,0.00,,---,0.01,VWS V14.00,2013-03-10 03:22:00,
2013-03-09 22:27:00,44.6,27.1,30.09,SSW,196,5.0,9.0,50,0.00,,---,0.01,VWS V14.00,2013-03-10 03:27:00,
2013-03-09 22:32:00,44.7,27.2,30.08,SSE,165,4.0,5.0,50,0.00,,---,0.01,VWS V14.00,2013-03-10 03:32:00,
2013-03-09 22:37:00,44.9,27.4,30.08,South,175,1.0,7.0,50,0.00,,---,0.01,VWS V14.00,2013-03-10 03:37:00,
2013-03-09 22:42:00,44.8,27.3,30.08,SSE,150,1.0,7.0,50,0.00,,---,0.01,VWS V14.00,2013-03-10 03:42:00,
2013-03-09 22:47:00,44.9,27.4,30.08,SSE,150,4.0,8.0,50,0.00,,---,0.01,VWS V14.00,2013-03-10 03:47:00,
2013-03-09 22:52:00,45.0,27.0,30.08,South,189,4.0,10.0,49,0.00,,---,0.01,VWS V14.00,2013-03-10 03:52:00,
2013-03-09 22:57:00,44.7,27.2,30.08,SSW,193,0.0,10.0,50,0.00,,---,0.01,VWS V14.00,2013-03-10 03:57:00,
2013-03-09 23:02:00,44.5,27.0,30.08,SSE,165,0.0,4.0,50,0.00,,---,0.01,VWS V14.00,2013-03-10 04:02:00,
2013-03-09 23:07:00,44.5,27.0,30.07,SSE,163,0.0,5.0,50,0.00,,---,0.01,VWS V14.00,2013-03-10 04:07:00,
2013-03-09 23:12:00,44.7,27.2,30.07,South,173,4.0,9.0,50,0.00,,---,0.01,VWS V14.00,2013-03-10 04:12:00,
2013-03-09 23:17:00,44.7,27.2,30.07,SSE,164,0.0,5.0,50,0.00,,---,0.01,VWS V14.00,2013-03-10 04:17:00,
2013-03-09 23:22:00,44.8,27.3,30.07,SSW,194,2.0,8.0,50,0.00,,---,0.01,VWS V14.00,2013-03-10 04:22:00,
2013-03-09 23:27:00,44.7,27.2,30.07,South,182,0.0,8.0,50,0.00,,---,0.01,VWS V14.00,2013-03-10 04:27:00,
2013-03-09 23:32:00,44.5,27.0,30.07,South,180,3.0,5.0,50,0.00,,---,0.01,VWS V14.00,2013-03-10 04:32:00,
2013-03-09 23:37:00,44.4,26.9,30.07,SSE,166,0.0,7.0,50,0.00,,---,0.01,VWS V14.00,2013-03-10 04:37:00,
2013-03-09 23:42:00,44.3,26.9,30.07,SSE,160,4.0,7.0,50,0.00,,---,0.01,VWS V14.00,2013-03-10 04:42:00,
2013-03-09 23:47:00,44.3,26.9,30.07,South,183,3.0,7.0,50,0.00,,---,0.01,VWS V14.00,2013-03-10 04:47:00,
2013-03-09 23:52:00,44.3,26.9,30.07,South,188,2.0,7.0,50,0.00,,---,0.01,VWS V14.00,2013-03-10 04:52:00,
2013-03-09 23:57:00,44.3,26.9,30.07,SSW,209,4.0,7.0,50,0.00,,---,0.01,VWS V14.00,2013-03-10 04:57:00,